Time;durP1;ratioP1;P1;durP2;ratioP2;P2;SDS_P1;SDS_P2;PMS_P1;PMS_P2;Temp;Humidity;BMP_temperature;BMP_pressure;BME280_temperature;BME280_humidity;BME280_pressure;Samples;Min_cycle;Max_cycle;Signal;HPM_P1;HPM_P2
2022/05/30 00:01:47;;;;;;;4.78;2.15;;;8.20;99.90;;;;;;5038268;28;20475;-59
2022/05/30 00:04:13;;;;;;;7.28;2.05;;;8.10;99.90;;;;;;5053988;28;20566;-58
2022/05/30 00:06:39;;;;;;;10.52;2.67;;;8.10;99.90;;;;;;5054366;28;20098;-59
2022/05/30 00:09:05;;;;;;;5.53;2.30;;;8.10;99.90;;;;;;5055012;28;20569;-58
2022/05/30 00:11:31;;;;;;;6.10;2.00;;;8.00;99.90;;;;;;5054303;28;20062;-59
2022/05/30 00:13:57;;;;;;;6.40;2.03;;;8.00;99.90;;;;;;5056305;28;20040;-58
2022/05/30 00:16:23;;;;;;;9.38;2.20;;;8.00;99.90;;;;;;5052760;28;20080;-59
2022/05/30 00:18:50;;;;;;;8.77;2.42;;;8.00;99.90;;;;;;5053097;28;20052;-59
2022/05/30 00:21:24;;;;;;;5.70;2.30;;;8.00;99.90;;;;;;5054155;28;20167;-58
2022/05/30 00:23:53;;;;;;;7.25;2.30;;;7.90;99.90;;;;;;5051348;28;20491;-59
2022/05/30 00:26:20;;;;;;;9.13;2.03;;;7.90;99.90;;;;;;5057360;28;20053;-59
2022/05/30 00:28:47;;;;;;;5.63;1.85;;;7.90;99.90;;;;;;5065228;28;20040;-58
2022/05/30 00:31:15;;;;;;;9.80;2.00;;;7.90;99.90;;;;;;5056655;28;20075;-58
2022/05/30 00:33:42;;;;;;;4.85;2.00;;;7.80;99.90;;;;;;5063797;28;20418;-57
2022/05/30 00:36:08;;;;;;;4.47;1.83;;;7.80;99.90;;;;;;5061411;28;20669;-58
2022/05/30 00:38:34;;;;;;;6.80;2.20;;;7.70;99.90;;;;;;5051857;28;20432;-59
2022/05/30 00:41:00;;;;;;;6.57;1.80;;;7.70;99.90;;;;;;5055700;28;20044;-59
2022/05/30 00:43:28;;;;;;;6.03;2.20;;;7.70;99.90;;;;;;5054207;28;20063;-57
2022/05/30 00:45:56;;;;;;;8.57;2.13;;;7.60;99.90;;;;;;5057746;28;20048;-58
2022/05/30 00:48:26;;;;;;;6.38;1.80;;;7.70;99.90;;;;;;5053530;28;20052;-58
2022/05/30 00:50:57;;;;;;;4.28;1.90;;;7.60;99.90;;;;;;5052283;28;20139;-59
2022/05/30 00:53:23;;;;;;;8.02;2.20;;;7.60;99.90;;;;;;5053257;28;20505;-58
2022/05/30 00:55:49;;;;;;;4.78;2.00;;;7.60;99.90;;;;;;5052272;28;20044;-58
2022/05/30 00:58:18;;;;;;;3.90;1.65;;;7.60;99.90;;;;;;5049559;28;20512;-59
2022/05/30 01:00:44;;;;;;;3.70;1.70;;;7.60;99.90;;;;;;5055254;28;20561;-59
2022/05/30 01:08:40;;;;;;;7.00;1.70;;;7.60;99.90;;;;;;5056125;28;20048;-58
2022/05/30 01:11:07;;;;;;;2.45;1.55;;;7.60;99.90;;;;;;5045711;28;20117;-59
2022/05/30 01:13:32;;;;;;;4.70;1.70;;;7.50;99.90;;;;;;5048331;28;20072;-58
2022/05/30 01:15:58;;;;;;;6.85;1.83;;;7.50;99.90;;;;;;5052070;28;20615;-59
2022/05/30 01:18:32;;;;;;;7.40;1.55;;;7.50;99.90;;;;;;5050728;28;20045;-59
2022/05/30 01:21:00;;;;;;;3.05;1.60;;;7.50;99.90;;;;;;5050731;28;20052;-59
2022/05/30 01:23:49;;;;;;;5.35;1.60;;;7.50;99.90;;;;;;5050612;28;20041;-59
2022/05/30 01:26:44;;;;;;;2.92;1.75;;;7.50;99.90;;;;;;5048843;28;20113;-59
2022/05/30 01:29:17;;;;;;;4.28;1.83;;;7.40;99.90;;;;;;5049917;28;20044;-59
2022/05/30 01:31:43;;;;;;;2.08;1.30;;;7.40;99.90;;;;;;5049676;28;20051;-58
2022/05/30 01:34:09;;;;;;;3.58;1.55;;;7.40;99.90;;;;;;5051964;28;20092;-58
2022/05/30 01:36:35;;;;;;;6.63;1.58;;;7.30;99.90;;;;;;5039498;28;20119;-58
2022/05/30 01:39:02;;;;;;;5.00;1.63;;;7.30;99.90;;;;;;5054017;28;20130;-59
2022/05/30 01:41:28;;;;;;;1.90;1.35;;;7.30;99.90;;;;;;5052212;28;20557;-59
2022/05/30 01:43:54;;;;;;;6.13;1.90;;;7.30;99.90;;;;;;5051488;28;20098;-58
2022/05/30 01:46:22;;;;;;;3.25;1.40;;;7.30;99.90;;;;;;5051332;28;21159;-56
2022/05/30 01:48:49;;;;;;;4.15;1.63;;;7.30;99.90;;;;;;5054901;28;20755;-58
2022/05/30 01:51:17;;;;;;;6.45;1.60;;;7.20;99.90;;;;;;5052103;28;20985;-58
2022/05/30 01:53:43;;;;;;;3.40;1.70;;;7.20;99.90;;;;;;5049918;28;20044;-58
2022/05/30 01:56:09;;;;;;;5.18;1.90;;;7.10;99.90;;;;;;5048598;28;20048;-58
2022/05/30 01:58:35;;;;;;;4.90;1.77;;;7.20;99.90;;;;;;5052243;28;20037;-58
2022/05/30 02:01:12;;;;;;;2.38;1.42;;;7.10;99.90;;;;;;5054250;28;20045;-58
2022/05/30 02:03:38;;;;;;;4.47;1.65;;;7.10;99.90;;;;;;5055592;28;20054;-59
2022/05/30 02:06:03;;;;;;;6.03;2.13;;;7.10;99.90;;;;;;5051658;28;20041;-58
2022/05/30 02:08:29;;;;;;;3.47;1.77;;;7.10;99.90;;;;;;5051705;28;20105;-58
2022/05/30 02:10:55;;;;;;;4.30;1.65;;;7.10;99.90;;;;;;5053456;28;20044;-58
2022/05/30 02:13:21;;;;;;;5.60;1.60;;;7.10;99.90;;;;;;5055457;28;20036;-58
2022/05/30 02:18:31;;;;;;;7.45;1.98;;;7.10;99.90;;;;;;5061309;28;20044;-59
2022/05/30 02:20:57;;;;;;;2.83;1.58;;;7.10;99.90;;;;;;5052211;28;20048;-59
2022/05/30 02:23:23;;;;;;;3.30;1.77;;;7.10;99.90;;;;;;5050297;28;20525;-59
2022/05/30 02:25:49;;;;;;;4.30;1.42;;;7.10;99.90;;;;;;5049313;28;20165;-58
2022/05/30 02:28:15;;;;;;;4.03;1.20;;;7.10;99.90;;;;;;5052238;28;20287;-58
2022/05/30 02:30:41;;;;;;;5.47;1.40;;;7.00;99.90;;;;;;5048270;28;21650;-59
2022/05/30 02:38:36;;;;;;;4.95;1.50;;;7.00;99.90;;;;;;5054371;28;20041;-58
2022/05/30 02:41:02;;;;;;;4.10;1.50;;;7.00;99.90;;;;;;5050343;28;20056;-58
2022/05/30 02:43:27;;;;;;;4.55;1.80;;;7.00;99.90;;;;;;5035786;28;20048;-59
2022/05/30 02:45:53;;;;;;;3.97;1.73;;;7.00;99.90;;;;;;5049565;28;20157;-58
2022/05/30 02:48:19;;;;;;;5.15;1.80;;;7.00;99.90;;;;;;5053917;28;20040;-59
2022/05/30 02:50:45;;;;;;;2.72;1.55;;;6.90;99.90;;;;;;5051351;28;20048;-57
2022/05/30 02:53:11;;;;;;;2.75;1.70;;;7.00;99.90;;;;;;5051635;28;20045;-57
2022/05/30 02:55:37;;;;;;;5.35;1.80;;;6.90;99.90;;;;;;5052242;28;20441;-58
2022/05/30 02:58:03;;;;;;;3.63;1.60;;;6.90;99.90;;;;;;5050266;28;20049;-58
2022/05/30 03:00:30;;;;;;;5.28;1.75;;;7.00;99.90;;;;;;5048588;28;20392;-57
2022/05/30 03:02:55;;;;;;;4.40;2.28;;;7.00;99.90;;;;;;5055184;28;20036;-58
2022/05/30 03:05:21;;;;;;;3.08;2.03;;;7.10;99.90;;;;;;5053476;28;20059;-58
2022/05/30 03:07:47;;;;;;;7.80;2.00;;;7.10;99.90;;;;;;5051487;28;20212;-58
2022/05/30 03:10:13;;;;;;;6.97;1.80;;;7.20;99.90;;;;;;5049503;28;20036;-59
2022/05/30 03:12:39;;;;;;;7.35;2.35;;;7.20;99.90;;;;;;5050862;28;20694;-59
2022/05/30 03:15:05;;;;;;;8.52;2.10;;;7.20;99.90;;;;;;5050241;28;20036;-59
2022/05/30 03:17:31;;;;;;;6.50;2.30;;;7.30;99.90;;;;;;5051056;28;20044;-59
2022/05/30 03:19:57;;;;;;;6.72;2.42;;;7.30;99.90;;;;;;5054656;28;20048;-60
2022/05/30 03:22:23;;;;;;;5.10;2.38;;;7.30;99.90;;;;;;5048490;28;21729;-58
2022/05/30 03:24:49;;;;;;;4.50;2.40;;;7.30;99.90;;;;;;5051707;28;20441;-59
2022/05/30 03:27:14;;;;;;;5.90;2.47;;;7.40;99.90;;;;;;5034715;28;20051;-59
2022/05/30 03:29:40;;;;;;;6.22;2.80;;;7.40;99.90;;;;;;5043244;28;20056;-59
2022/05/30 03:32:06;;;;;;;9.30;2.35;;;7.50;99.90;;;;;;5045792;28;20029;-60
2022/05/30 03:34:32;;;;;;;8.23;2.78;;;7.50;99.90;;;;;;5052564;28;20060;-59
2022/05/30 03:36:58;;;;;;;3.35;2.17;;;7.50;99.90;;;;;;5049835;28;20048;-59
2022/05/30 03:39:24;;;;;;;5.93;2.22;;;7.50;99.90;;;;;;5016460;28;20052;-60
2022/05/30 03:41:50;;;;;;;3.80;2.38;;;7.60;99.90;;;;;;5049834;28;20044;-60
2022/05/30 03:44:15;;;;;;;5.72;2.42;;;7.60;99.90;;;;;;5052094;28;20040;-59
2022/05/30 03:46:41;;;;;;;8.52;2.58;;;7.60;99.90;;;;;;5051379;28;20046;-60
2022/05/30 03:49:07;;;;;;;5.45;2.65;;;7.60;99.90;;;;;;5044067;28;20051;-60
2022/05/30 03:51:33;;;;;;;5.78;2.80;;;7.70;99.90;;;;;;5049028;28;20091;-59
2022/05/30 03:53:59;;;;;;;4.55;2.42;;;7.70;99.90;;;;;;5049381;28;21217;-60
2022/05/30 03:56:25;;;;;;;8.40;2.53;;;7.70;99.90;;;;;;5049163;28;20037;-59
2022/05/30 03:58:51;;;;;;;6.32;2.60;;;7.70;99.90;;;;;;5033138;28;20157;-59
2022/05/30 04:01:17;;;;;;;6.63;2.63;;;7.70;99.90;;;;;;5057171;28;20059;-58
2022/05/30 04:03:44;;;;;;;6.93;2.65;;;7.70;99.90;;;;;;5053744;28;20033;-59
2022/05/30 04:06:10;;;;;;;4.88;2.20;;;7.70;99.90;;;;;;5053199;28;20053;-59
2022/05/30 04:08:36;;;;;;;6.57;2.53;;;7.70;99.90;;;;;;5051333;28;20453;-60
2022/05/30 04:11:02;;;;;;;5.15;2.63;;;7.70;99.90;;;;;;5050783;28;20471;-59
2022/05/30 04:13:28;;;;;;;3.65;2.40;;;7.70;99.90;;;;;;5047782;28;20195;-60
2022/05/30 04:15:54;;;;;;;7.57;2.67;;;7.80;99.90;;;;;;5050668;28;20049;-59
2022/05/30 04:18:20;;;;;;;5.55;2.30;;;7.70;99.90;;;;;;5050593;28;20150;-59
2022/05/30 04:20:46;;;;;;;5.38;2.45;;;7.70;99.90;;;;;;5057006;28;20048;-60
2022/05/30 04:23:13;;;;;;;9.88;2.88;;;7.80;99.90;;;;;;5058190;28;20047;-59
2022/05/30 04:25:39;;;;;;;6.88;2.50;;;7.80;99.90;;;;;;5057427;28;20052;-59
2022/05/30 04:28:05;;;;;;;4.63;2.45;;;7.80;99.90;;;;;;5052064;28;20129;-59
2022/05/30 04:30:31;;;;;;;5.72;3.08;;;7.80;99.90;;;;;;5038628;28;20530;-59
2022/05/30 04:32:57;;;;;;;5.90;2.53;;;7.80;99.90;;;;;;5055454;28;20039;-58
2022/05/30 04:35:23;;;;;;;7.28;2.35;;;7.90;99.90;;;;;;5056672;28;20385;-59
2022/05/30 04:37:50;;;;;;;5.20;2.25;;;7.90;99.90;;;;;;5053650;28;20123;-60
2022/05/30 04:40:18;;;;;;;5.97;2.65;;;7.90;99.90;;;;;;5052304;28;20044;-59
2022/05/30 04:42:45;;;;;;;7.60;2.53;;;8.00;99.90;;;;;;5056701;28;20078;-60
2022/05/30 04:45:12;;;;;;;7.30;3.10;;;8.00;99.90;;;;;;5033292;28;20048;-59
2022/05/30 04:47:39;;;;;;;6.82;2.67;;;8.00;99.90;;;;;;5052237;28;20048;-59
2022/05/30 04:50:08;;;;;;;6.97;3.03;;;8.00;99.90;;;;;;5056812;28;20071;-59
2022/05/30 04:52:34;;;;;;;5.78;2.25;;;8.10;99.90;;;;;;5058105;28;20045;-59
2022/05/30 04:55:00;;;;;;;4.55;2.55;;;8.10;99.90;;;;;;5051739;28;20047;-59
2022/05/30 04:57:26;;;;;;;5.60;2.60;;;8.10;99.90;;;;;;5034078;28;20040;-59
2022/05/30 04:59:52;;;;;;;8.43;2.80;;;8.20;99.90;;;;;;5037367;28;20490;-58
2022/05/30 05:02:18;;;;;;;4.25;2.60;;;8.20;99.90;;;;;;5058103;28;20060;-59
2022/05/30 05:04:43;;;;;;;5.75;2.58;;;8.30;99.90;;;;;;5052121;28;20445;-59
2022/05/30 05:07:10;;;;;;;8.70;2.50;;;8.30;99.90;;;;;;5053589;28;20695;-59
2022/05/30 05:09:40;;;;;;;5.25;2.80;;;8.40;99.90;;;;;;5049827;28;20105;-59
2022/05/30 05:12:06;;;;;;;4.10;2.20;;;8.40;99.90;;;;;;5051262;28;20044;-59
2022/05/30 05:14:32;;;;;;;3.80;2.03;;;8.40;99.90;;;;;;5052105;28;20691;-60
2022/05/30 05:16:58;;;;;;;6.82;2.30;;;8.50;99.90;;;;;;5051420;28;20032;-58
2022/05/30 05:19:24;;;;;;;5.30;2.05;;;8.50;99.90;;;;;;5053937;28;20046;-59
2022/05/30 05:21:50;;;;;;;3.17;2.20;;;8.50;99.90;;;;;;5052899;28;20074;-59
2022/05/30 05:24:17;;;;;;;8.73;2.40;;;8.50;99.90;;;;;;5053289;28;20052;-60
2022/05/30 05:26:48;;;;;;;7.30;2.53;;;8.50;99.90;;;;;;5051156;28;20055;-59
2022/05/30 05:29:16;;;;;;;6.22;2.63;;;8.50;99.90;;;;;;5058148;28;20044;-59
2022/05/30 05:31:42;;;;;;;4.22;2.47;;;8.50;99.90;;;;;;5049981;28;20045;-59
2022/05/30 05:34:10;;;;;;;5.53;2.25;;;8.60;99.90;;;;;;5054429;28;21558;-60
2022/05/30 05:36:39;;;;;;;5.20;2.55;;;8.70;99.90;;;;;;5057149;28;20067;-59
2022/05/30 05:39:06;;;;;;;5.13;2.40;;;8.70;99.90;;;;;;5043765;28;20060;-59
2022/05/30 05:41:32;;;;;;;6.40;2.40;;;8.80;99.90;;;;;;5052317;28;20088;-60
2022/05/30 05:43:58;;;;;;;5.25;1.90;;;8.80;99.90;;;;;;5048939;28;20135;-59
2022/05/30 05:46:27;;;;;;;3.88;2.13;;;8.90;99.90;;;;;;5049621;28;20047;-59
2022/05/30 05:48:54;;;;;;;7.13;2.25;;;9.00;99.90;;;;;;5052344;28;20040;-58
2022/05/30 05:51:21;;;;;;;3.50;1.92;;;9.10;99.90;;;;;;5046322;28;20110;-58
2022/05/30 05:53:47;;;;;;;7.15;2.00;;;9.20;99.90;;;;;;5034232;28;20518;-60
2022/05/30 05:56:17;;;;;;;6.30;2.20;;;9.30;99.90;;;;;;5065182;28;20045;-60
2022/05/30 05:58:43;;;;;;;4.38;2.03;;;9.30;99.90;;;;;;5014637;28;20055;-59
2022/05/30 06:01:11;;;;;;;4.15;1.83;;;9.40;99.90;;;;;;5030781;28;20052;-60
2022/05/30 06:03:37;;;;;;;4.90;1.70;;;9.50;99.90;;;;;;5054268;28;20052;-60
2022/05/30 06:06:04;;;;;;;3.92;1.70;;;9.60;99.90;;;;;;5057909;28;20040;-60
2022/05/30 06:08:30;;;;;;;5.53;1.63;;;9.70;99.90;;;;;;5060336;28;20040;-59
2022/05/30 06:11:05;;;;;;;3.60;1.30;;;9.70;99.90;;;;;;5056897;28;20087;-55
2022/05/30 06:13:36;;;;;;;1.63;1.40;;;9.80;99.90;;;;;;5055944;28;20115;-57
2022/05/30 06:16:07;;;;;;;5.30;1.52;;;9.90;99.90;;;;;;5052384;28;20664;-56
2022/05/30 06:18:34;;;;;;;4.93;1.40;;;10.00;99.90;;;;;;5061150;28;20032;-55
2022/05/30 06:21:00;;;;;;;4.88;1.35;;;10.00;99.90;;;;;;5061187;28;20048;-55
2022/05/30 06:23:26;;;;;;;3.17;1.10;;;10.10;99.90;;;;;;5062109;28;20128;-53
2022/05/30 06:25:52;;;;;;;3.05;1.35;;;10.10;99.90;;;;;;5063584;28;20048;-55
2022/05/30 06:28:18;;;;;;;3.05;1.10;;;10.10;99.90;;;;;;5061245;28;20067;-56
2022/05/30 06:30:44;;;;;;;2.17;1.17;;;10.20;99.90;;;;;;5059376;28;20045;-56
2022/05/30 06:33:10;;;;;;;2.05;1.20;;;10.20;99.90;;;;;;5043437;28;20088;-55
2022/05/30 06:35:44;;;;;;;2.22;1.10;;;10.20;99.90;;;;;;5061365;28;20048;-56
2022/05/30 06:38:11;;;;;;;2.78;1.38;;;10.30;99.90;;;;;;5061519;28;20044;-58
2022/05/30 06:40:37;;;;;;;2.78;1.20;;;10.30;99.90;;;;;;5063881;28;20254;-57
2022/05/30 06:43:03;;;;;;;4.28;1.48;;;10.40;99.90;;;;;;5061818;28;20589;-56
2022/05/30 06:45:30;;;;;;;3.47;1.05;;;10.40;99.90;;;;;;5062462;28;20052;-57
2022/05/30 06:47:56;;;;;;;1.73;0.90;;;10.50;99.90;;;;;;5057428;28;20047;-56
2022/05/30 06:50:22;;;;;;;4.80;1.25;;;10.60;99.90;;;;;;5062822;28;20048;-55
2022/05/30 06:52:48;;;;;;;2.00;1.00;;;10.60;99.90;;;;;;5061129;28;20043;-56
2022/05/30 06:55:13;;;;;;;4.25;1.20;;;10.70;99.90;;;;;;5061044;28;20044;-54
2022/05/30 07:00:23;;;;;;;1.70;1.08;;;10.80;99.90;;;;;;5046555;28;20492;-56
2022/05/30 07:02:51;;;;;;;4.18;1.60;;;10.80;99.90;;;;;;5050973;28;20056;-56
2022/05/30 07:05:17;;;;;;;2.55;1.08;;;10.80;99.90;;;;;;5059572;28;20098;-56
2022/05/30 07:07:45;;;;;;;4.32;1.40;;;10.80;99.90;;;;;;5061031;28;20128;-55
2022/05/30 07:10:11;;;;;;;6.60;1.40;;;10.80;99.90;;;;;;5059276;28;20559;-55
2022/05/30 07:12:37;;;;;;;3.50;1.50;;;10.80;99.90;;;;;;5055790;28;20037;-56
2022/05/30 07:15:04;;;;;;;5.15;1.70;;;10.80;99.90;;;;;;5060904;28;20044;-56
2022/05/30 07:17:29;;;;;;;3.63;1.30;;;10.80;99.90;;;;;;5060508;28;20145;-56
2022/05/30 07:19:57;;;;;;;4.22;1.88;;;10.80;99.90;;;;;;5060989;28;20127;-55
2022/05/30 07:22:24;;;;;;;1.90;1.30;;;10.70;99.90;;;;;;5060920;28;20126;-56
2022/05/30 07:24:50;;;;;;;3.10;1.45;;;10.80;99.90;;;;;;5062877;28;20493;-55
2022/05/30 07:27:16;;;;;;;2.95;1.33;;;10.80;99.90;;;;;;5061224;28;20041;-55
2022/05/30 07:29:42;;;;;;;2.58;1.30;;;10.90;99.90;;;;;;5059278;28;20050;-56
2022/05/30 07:32:08;;;;;;;1.77;1.30;;;10.90;99.90;;;;;;5057891;28;20533;-55
2022/05/30 07:34:37;;;;;;;2.28;1.30;;;10.90;99.90;;;;;;5060678;28;20056;-56
2022/05/30 07:37:04;;;;;;;2.13;1.30;;;11.00;99.90;;;;;;5061608;28;20391;-55
2022/05/30 07:39:29;;;;;;;3.10;1.27;;;11.00;99.90;;;;;;5061372;28;20078;-56
2022/05/30 07:41:56;;;;;;;3.22;1.55;;;11.10;99.90;;;;;;5060827;28;20051;-56
2022/05/30 07:44:21;;;;;;;3.20;1.40;;;11.30;99.90;;;;;;5062693;28;20041;-57
2022/05/30 07:46:47;;;;;;;4.43;1.40;;;11.50;99.90;;;;;;5061780;28;20048;-56
2022/05/30 07:49:14;;;;;;;2.60;1.10;;;11.70;99.90;;;;;;5064440;28;20097;-56
2022/05/30 07:51:42;;;;;;;3.90;1.50;;;12.00;99.90;;;;;;5062588;28;20060;-55
2022/05/30 07:54:08;;;;;;;2.50;1.30;;;12.20;99.90;;;;;;5065088;28;20707;-56
2022/05/30 07:56:34;;;;;;;1.88;1.13;;;12.40;99.90;;;;;;5065001;28;20036;-57
2022/05/30 07:59:00;;;;;;;2.53;1.40;;;12.60;99.90;;;;;;5063658;28;20045;-56
2022/05/30 08:01:26;;;;;;;2.45;1.20;;;12.70;99.90;;;;;;5064917;28;20074;-56
2022/05/30 08:03:52;;;;;;;4.60;1.17;;;12.70;99.90;;;;;;5065562;28;20045;-56
2022/05/30 08:06:24;;;;;;;2.80;1.33;;;12.70;99.90;;;;;;5061794;28;20044;-56
2022/05/30 08:08:51;;;;;;;7.20;1.40;;;12.60;99.90;;;;;;5054120;28;20406;-55
2022/05/30 08:11:17;;;;;;;1.85;1.40;;;12.50;99.90;;;;;;5046725;28;20045;-55
2022/05/30 08:13:45;;;;;;;1.80;1.00;;;12.50;99.90;;;;;;5065561;28;20044;-57
2022/05/30 08:16:12;;;;;;;5.22;1.25;;;12.60;99.90;;;;;;5062288;28;20040;-55
2022/05/30 08:18:38;;;;;;;3.97;1.20;;;12.70;99.90;;;;;;5064681;28;20170;-56
2022/05/30 08:21:05;;;;;;;3.45;1.00;;;12.90;99.90;;;;;;5062960;28;20120;-54
2022/05/30 08:23:32;;;;;;;2.92;0.90;;;12.90;99.90;;;;;;5056166;28;20060;-56
2022/05/30 08:25:58;;;;;;;2.25;0.93;;;13.00;99.90;;;;;;5064202;28;20057;-57
2022/05/30 08:28:24;;;;;;;0.88;0.82;;;13.10;99.90;;;;;;5054788;28;20048;-55
2022/05/30 08:30:53;;;;;;;2.38;0.80;;;13.10;99.90;;;;;;5064202;28;20048;-57
2022/05/30 08:33:20;;;;;;;1.52;0.70;;;13.10;99.90;;;;;;5062289;28;20055;-56
2022/05/30 08:35:47;;;;;;;5.35;0.90;;;13.00;99.90;;;;;;5061253;28;20040;-57
2022/05/30 08:38:14;;;;;;;4.38;0.90;;;12.80;99.90;;;;;;5064557;28;20045;-56
2022/05/30 08:43:37;;;;;;;0.88;0.75;;;12.50;99.90;;;;;;5064535;28;20083;-57
2022/05/30 08:46:16;;;;;;;4.07;1.17;;;12.50;99.90;;;;;;5065756;28;20083;-57
2022/05/30 08:48:50;;;;;;;4.65;0.90;;;12.40;99.90;;;;;;5063142;28;20048;-56
2022/05/30 08:51:36;;;;;;;2.50;0.90;;;12.40;99.90;;;;;;5062704;28;20377;-56
2022/05/30 08:54:02;;;;;;;4.13;1.10;;;12.40;99.90;;;;;;5063203;28;20139;-54
2022/05/30 08:56:34;;;;;;;3.05;1.17;;;12.40;99.90;;;;;;5064570;28;20127;-56
2022/05/30 08:59:45;;;;;;;3.88;1.10;;;12.40;99.90;;;;;;5062372;28;20530;-56
2022/05/30 09:02:23;;;;;;;3.60;0.90;;;12.50;99.90;;;;;;5037501;28;20037;-56
2022/05/30 09:05:03;;;;;;;3.35;0.98;;;12.60;99.90;;;;;;5060235;28;20083;-57
2022/05/30 09:07:42;;;;;;;3.17;1.10;;;12.70;99.90;;;;;;5063924;28;20629;-56
2022/05/30 09:10:18;;;;;;;2.50;0.85;;;12.70;99.90;;;;;;5064065;28;20105;-56
2022/05/30 09:13:10;;;;;;;1.42;0.80;;;12.80;99.90;;;;;;5064611;28;20095;-56
2022/05/30 09:15:46;;;;;;;2.50;0.97;;;12.80;99.90;;;;;;5064566;28;20040;-55
2022/05/30 09:18:52;;;;;;;1.15;0.77;;;12.80;99.90;;;;;;5064058;28;20151;-55
2022/05/30 09:21:21;;;;;;;3.92;0.90;;;12.90;99.90;;;;;;5055075;28;20083;-57
2022/05/30 09:23:48;;;;;;;5.60;1.08;;;12.90;99.90;;;;;;5062564;28;20060;-55
2022/05/30 09:26:18;;;;;;;2.40;1.00;;;13.00;99.90;;;;;;5062984;28;20484;-56
2022/05/30 09:28:45;;;;;;;5.28;0.95;;;13.20;99.90;;;;;;5060943;28;20575;-57
2022/05/30 09:32:04;;;;;;;2.55;1.10;;;13.20;99.90;;;;;;5061875;28;20076;-57
2022/05/30 09:34:45;;;;;;;1.40;1.10;;;13.20;99.90;;;;;;4976964;28;20069;-57
2022/05/30 09:37:33;;;;;;;3.08;1.10;;;13.20;99.90;;;;;;5062405;28;20556;-55
2022/05/30 09:39:59;;;;;;;2.00;0.70;;;13.30;99.90;;;;;;5065354;28;20042;-56
2022/05/30 09:42:31;;;;;;;2.10;0.70;;;13.30;99.90;;;;;;5062541;28;20414;-57
2022/05/30 09:45:11;;;;;;;1.73;0.70;;;13.40;99.90;;;;;;5063472;28;20485;-57
2022/05/30 09:47:37;;;;;;;0.88;0.70;;;13.40;99.90;;;;;;5063613;28;20045;-55
2022/05/30 09:50:15;;;;;;;1.48;0.65;;;13.40;99.90;;;;;;5064550;28;20051;-56
2022/05/30 09:52:41;;;;;;;1.23;0.60;;;13.50;99.90;;;;;;5060223;28;20048;-57
2022/05/30 09:55:25;;;;;;;0.88;0.60;;;13.60;99.90;;;;;;5063502;28;20086;-57
2022/05/30 09:57:53;;;;;;;1.48;0.60;;;13.70;99.90;;;;;;5059741;28;20498;-55
2022/05/30 10:00:46;;;;;;;1.65;0.52;;;13.90;99.90;;;;;;5060487;28;20110;-56
2022/05/30 10:03:35;;;;;;;0.85;0.50;;;14.00;99.90;;;;;;5062253;28;20159;-55
2022/05/30 10:06:20;;;;;;;2.17;0.70;;;14.10;99.90;;;;;;5062393;28;20688;-55
2022/05/30 10:08:47;;;;;;;0.50;0.50;;;14.20;99.90;;;;;;5061524;28;20041;-57
2022/05/30 10:11:52;;;;;;;0.82;0.50;;;14.30;99.90;;;;;;5061153;28;20070;-56
2022/05/30 10:14:24;;;;;;;1.35;0.60;;;14.40;99.90;;;;;;5034992;28;20116;-56
2022/05/30 10:16:52;;;;;;;1.30;0.60;;;14.40;99.90;;;;;;5060670;28;20789;-56
2022/05/30 10:19:28;;;;;;;2.28;0.40;;;14.40;99.90;;;;;;5063875;28;20076;-55
2022/05/30 10:28:50;;;;;;;1.77;0.50;;;14.20;99.90;;;;;;5062488;28;20079;-55
2022/05/30 10:31:43;;;;;;;4.00;0.80;;;14.10;99.90;;;;;;5060421;28;20045;-57
2022/05/30 10:34:54;;;;;;;3.47;0.70;;;13.90;99.90;;;;;;5062959;28;20479;-56
2022/05/30 10:37:46;;;;;;;2.85;0.88;;;13.80;99.90;;;;;;5062795;28;20344;-56
2022/05/30 10:40:11;;;;;;;2.10;0.70;;;13.60;99.90;;;;;;5059909;28;20105;-56
2022/05/30 10:42:50;;;;;;;1.27;0.90;;;13.50;99.90;;;;;;5063535;28;20289;-55
2022/05/30 10:45:21;;;;;;;3.30;0.75;;;13.40;99.90;;;;;;5059794;28;20048;-57
2022/05/30 10:47:52;;;;;;;1.55;0.60;;;13.40;99.90;;;;;;5061936;28;20056;-57
2022/05/30 10:50:52;;;;;;;1.10;0.82;;;13.30;99.90;;;;;;5062983;28;20122;-57
2022/05/30 10:53:30;;;;;;;2.83;0.70;;;13.30;99.90;;;;;;5060822;28;20402;-56
2022/05/30 10:56:03;;;;;;;1.40;0.60;;;13.30;99.90;;;;;;5060087;28;20032;-56
2022/05/30 10:58:30;;;;;;;;;;;13.30;99.90;;;;;;5062712;28;20478;-56
2022/05/30 11:01:37;;;;;;;1.33;0.70;;;13.30;99.90;;;;;;5058673;28;20487;-54
2022/05/30 11:04:18;;;;;;;2.05;0.80;;;13.30;99.90;;;;;;4992966;28;20521;-56
2022/05/30 11:06:47;;;;;;;1.45;0.80;;;13.50;99.90;;;;;;5056166;28;20040;-56
2022/05/30 11:09:40;;;;;;;1.38;0.80;;;13.70;99.90;;;;;;5060954;28;20455;-56
2022/05/30 11:12:30;;;;;;;1.67;0.77;;;13.80;99.90;;;;;;5060294;28;20041;-54
2022/05/30 11:15:08;;;;;;;4.43;0.93;;;14.00;99.90;;;;;;5062190;28;20055;-56
2022/05/30 11:17:41;;;;;;;2.30;1.20;;;14.10;99.90;;;;;;5062926;28;20094;-56
2022/05/30 11:20:10;;;;;;;6.93;1.20;;;14.20;99.90;;;;;;5062386;28;20490;-55
2022/05/30 11:22:48;;;;;;;2.15;0.73;;;14.30;99.90;;;;;;5064956;28;20044;-55
2022/05/30 11:25:19;;;;;;;1.95;1.00;;;14.40;99.90;;;;;;5066038;28;20053;-56
2022/05/30 11:28:07;;;;;;;0.80;0.60;;;14.50;99.90;;;;;;5064956;28;20059;-55
2022/05/30 11:31:30;;;;;;;3.72;0.80;;;14.60;99.90;;;;;;5063354;28;20051;-55
2022/05/30 11:34:17;;;;;;;0.95;0.80;;;14.70;99.90;;;;;;4989548;28;20580;-56
2022/05/30 11:37:06;;;;;;;3.95;0.88;;;14.80;99.90;;;;;;4990078;28;20109;-55
2022/05/30 11:40:04;;;;;;;2.47;0.98;;;14.80;99.90;;;;;;5056308;28;20094;-57
2022/05/30 11:43:16;;;;;;;0.93;0.70;;;14.70;99.90;;;;;;5063707;28;20040;-56
2022/05/30 11:46:01;;;;;;;3.50;0.80;;;14.60;99.90;;;;;;5057391;28;20487;-58
2022/05/30 11:48:47;;;;;;;2.08;0.80;;;14.60;99.90;;;;;;5063921;28;20037;-57
2022/05/30 11:51:15;;;;;;;4.82;1.33;;;14.50;99.90;;;;;;5065404;28;20448;-57
2022/05/30 11:54:02;;;;;;;1.80;0.90;;;14.40;99.90;;;;;;5066626;28;20375;-56
2022/05/30 11:56:39;;;;;;;2.60;1.02;;;14.40;99.90;;;;;;5064906;28;20047;-56
2022/05/30 11:59:34;;;;;;;1.75;0.75;;;14.20;99.90;;;;;;5052496;28;20037;-56
2022/05/30 12:02:03;;;;;;;1.90;0.85;;;14.10;99.90;;;;;;5062966;28;20055;-56
2022/05/30 12:05:04;;;;;;;1.52;0.82;;;14.10;99.90;;;;;;5064148;28;20051;-56
2022/05/30 12:07:45;;;;;;;2.70;0.98;;;14.00;99.90;;;;;;5064008;28;20718;-55
2022/05/30 12:10:24;;;;;;;1.17;0.70;;;13.90;99.90;;;;;;5065345;28;20101;-55
2022/05/30 12:12:59;;;;;;;1.15;0.80;;;13.80;99.90;;;;;;5064527;28;20040;-56
2022/05/30 12:15:44;;;;;;;1.67;0.70;;;13.70;99.90;;;;;;5064352;28;20058;-56
2022/05/30 12:24:12;;;;;;;1.00;0.60;;;13.60;99.90;;;;;;5066164;28;21067;-56
2022/05/30 12:26:48;;;;;;;2.15;0.70;;;13.60;99.90;;;;;;5063083;28;20055;-56
2022/05/30 12:29:44;;;;;;;1.35;0.70;;;13.60;99.90;;;;;;5062774;28;20106;-58
2022/05/30 12:32:16;;;;;;;1.05;0.70;;;13.70;99.90;;;;;;5061269;28;20218;-56
2022/05/30 12:35:00;;;;;;;2.58;0.68;;;13.70;99.90;;;;;;5060317;28;20057;-56
2022/05/30 12:37:43;;;;;;;2.15;0.52;;;13.80;99.90;;;;;;5063715;28;20533;-57
2022/05/30 12:40:25;;;;;;;1.55;0.70;;;13.80;99.90;;;;;;5065300;28;20056;-57
2022/05/30 12:43:10;;;;;;;1.65;0.70;;;13.70;99.90;;;;;;5064623;28;20485;-56
2022/05/30 12:45:40;;;;;;;2.13;0.70;;;13.90;99.90;;;;;;5061636;28;20121;-57
2022/05/30 12:48:27;;;;;;;1.42;0.70;;;13.80;99.90;;;;;;5065756;28;20052;-56
2022/05/30 12:50:53;;;;;;;3.60;0.80;;;13.70;99.90;;;;;;5063096;28;20075;-57
2022/05/30 12:53:21;;;;;;;1.95;0.80;;;13.70;99.90;;;;;;5070823;28;20036;-56
2022/05/30 12:55:51;;;;;;;1.67;0.88;;;13.60;99.90;;;;;;5063030;28;20477;-56
2022/05/30 12:58:42;;;;;;;3.00;1.15;;;13.60;99.90;;;;;;5063992;28;20040;-56
2022/05/30 13:01:26;;;;;;;1.33;0.80;;;13.50;99.90;;;;;;5058916;28;20061;-56
2022/05/30 13:06:58;;;;;;;1.30;0.70;;;13.40;99.90;;;;;;5061621;28;20047;-56
2022/05/30 13:09:42;;;;;;;1.05;0.70;;;13.40;99.90;;;;;;5061373;28;20120;-58
2022/05/30 13:12:11;;;;;;;1.75;0.80;;;13.40;99.90;;;;;;5062611;28;20056;-56
2022/05/30 13:14:37;;;;;;;5.55;0.90;;;13.40;99.90;;;;;;5063652;28;20041;-56
2022/05/30 13:17:24;;;;;;;2.63;0.90;;;13.30;99.90;;;;;;5065011;28;20052;-58
2022/05/30 13:20:04;;;;;;;1.90;0.90;;;13.30;99.90;;;;;;5064341;28;20128;-56
2022/05/30 13:22:39;;;;;;;2.67;0.95;;;13.30;99.90;;;;;;5061938;28;20801;-56
2022/05/30 13:25:08;;;;;;;1.58;0.88;;;13.20;99.90;;;;;;5064000;28;20127;-56
2022/05/30 13:27:34;;;;;;;2.30;1.10;;;13.20;99.90;;;;;;5063842;28;20391;-58
2022/05/30 13:30:14;;;;;;;3.88;1.00;;;13.10;99.90;;;;;;5062919;28;20040;-56
2022/05/30 13:32:40;;;;;;;1.67;0.90;;;13.10;99.90;;;;;;5061318;28;20047;-56
2022/05/30 13:35:11;;;;;;;1.65;0.90;;;13.10;99.90;;;;;;5063239;28;20135;-56
2022/05/30 13:37:46;;;;;;;2.78;1.02;;;13.10;99.90;;;;;;5061962;28;20072;-56
2022/05/30 13:40:20;;;;;;;1.13;0.70;;;13.10;99.90;;;;;;5062182;28;20503;-56
2022/05/30 13:42:56;;;;;;;3.15;0.88;;;13.20;99.90;;;;;;5064211;28;20462;-56
2022/05/30 13:45:40;;;;;;;1.73;0.90;;;13.30;99.90;;;;;;5061459;28;20135;-56
2022/05/30 13:48:10;;;;;;;1.75;0.82;;;13.40;99.90;;;;;;5063475;28;20439;-55
2022/05/30 13:50:58;;;;;;;2.55;0.80;;;13.60;99.90;;;;;;5045167;28;20048;-57